sensor_id;sensor_type;location;lat;lon;timestamp;P1;durP1;ratioP1;P2;durP2;ratioP2
60867;SDS011;46702;48.370;10.794;2022-08-06T00:01:37;7.20;;;4.70;;
60867;SDS011;46702;48.370;10.794;2022-08-06T00:04:02;7.50;;;5.28;;
60867;SDS011;46702;48.370;10.794;2022-08-06T00:06:28;8.98;;;5.90;;
60867;SDS011;46702;48.370;10.794;2022-08-06T00:08:54;10.75;;;7.15;;
60867;SDS011;46702;48.370;10.794;2022-08-06T00:11:20;8.68;;;6.38;;
60867;SDS011;46702;48.370;10.794;2022-08-06T00:13:45;9.48;;;6.03;;
60867;SDS011;46702;48.370;10.794;2022-08-06T00:16:11;6.78;;;5.80;;
60867;SDS011;46702;48.370;10.794;2022-08-06T00:18:37;9.20;;;5.82;;
60867;SDS011;46702;48.370;10.794;2022-08-06T00:21:02;12.65;;;7.35;;
60867;SDS011;46702;48.370;10.794;2022-08-06T00:23:28;11.20;;;6.55;;
60867;SDS011;46702;48.370;10.794;2022-08-06T00:25:54;7.60;;;5.82;;
60867;SDS011;46702;48.370;10.794;2022-08-06T00:28:20;10.38;;;5.93;;
60867;SDS011;46702;48.370;10.794;2022-08-06T00:30:47;10.30;;;6.40;;
60867;SDS011;46702;48.370;10.794;2022-08-06T00:33:13;8.50;;;5.53;;
60867;SDS011;46702;48.370;10.794;2022-08-06T00:35:38;6.97;;;5.45;;
60867;SDS011;46702;48.370;10.794;2022-08-06T00:38:04;10.75;;;6.22;;
60867;SDS011;46702;48.370;10.794;2022-08-06T00:40:29;8.48;;;5.60;;
60867;SDS011;46702;48.370;10.794;2022-08-06T00:43:00;7.72;;;5.50;;
60867;SDS011;46702;48.370;10.794;2022-08-06T00:45:28;10.38;;;6.28;;
60867;SDS011;46702;48.370;10.794;2022-08-06T00:47:58;10.15;;;6.72;;
60867;SDS011;46702;48.370;10.794;2022-08-06T00:50:24;11.05;;;6.32;;
60867;SDS011;46702;48.370;10.794;2022-08-06T00:52:50;8.95;;;6.28;;
60867;SDS011;46702;48.370;10.794;2022-08-06T00:55:16;10.82;;;7.35;;
60867;SDS011;46702;48.370;10.794;2022-08-06T00:57:42;12.68;;;7.80;;
60867;SDS011;46702;48.370;10.794;2022-08-06T01:00:08;12.02;;;7.40;;
60867;SDS011;46702;48.370;10.794;2022-08-06T01:02:34;11.93;;;6.97;;
60867;SDS011;46702;48.370;10.794;2022-08-06T01:05:00;12.85;;;7.47;;
60867;SDS011;46702;48.370;10.794;2022-08-06T01:07:25;12.13;;;7.30;;
60867;SDS011;46702;48.370;10.794;2022-08-06T01:09:51;10.10;;;6.13;;
60867;SDS011;46702;48.370;10.794;2022-08-06T01:12:17;10.95;;;6.53;;
60867;SDS011;46702;48.370;10.794;2022-08-06T01:14:43;12.30;;;7.32;;
60867;SDS011;46702;48.370;10.794;2022-08-06T01:17:16;12.02;;;7.07;;
60867;SDS011;46702;48.370;10.794;2022-08-06T01:25:36;9.10;;;5.68;;
60867;SDS011;46702;48.370;10.794;2022-08-06T01:28:31;8.93;;;6.05;;
60867;SDS011;46702;48.370;10.794;2022-08-06T01:31:07;11.45;;;5.75;;
60867;SDS011;46702;48.370;10.794;2022-08-06T01:33:40;8.82;;;4.97;;
60867;SDS011;46702;48.370;10.794;2022-08-06T01:36:11;7.80;;;5.25;;
60867;SDS011;46702;48.370;10.794;2022-08-06T01:38:43;10.82;;;5.82;;
60867;SDS011;46702;48.370;10.794;2022-08-06T01:41:13;8.18;;;5.00;;
60867;SDS011;46702;48.370;10.794;2022-08-06T01:44:03;12.93;;;7.05;;
60867;SDS011;46702;48.370;10.794;2022-08-06T01:46:42;7.15;;;5.15;;
60867;SDS011;46702;48.370;10.794;2022-08-06T01:49:12;8.75;;;5.53;;
60867;SDS011;46702;48.370;10.794;2022-08-06T01:51:43;8.75;;;6.07;;
60867;SDS011;46702;48.370;10.794;2022-08-06T01:54:10;7.75;;;5.50;;
60867;SDS011;46702;48.370;10.794;2022-08-06T01:56:38;9.25;;;5.82;;
60867;SDS011;46702;48.370;10.794;2022-08-06T01:59:06;8.45;;;5.43;;
60867;SDS011;46702;48.370;10.794;2022-08-06T02:01:32;7.00;;;4.82;;
60867;SDS011;46702;48.370;10.794;2022-08-06T02:04:01;12.82;;;6.05;;
60867;SDS011;46702;48.370;10.794;2022-08-06T02:06:30;8.50;;;5.65;;
60867;SDS011;46702;48.370;10.794;2022-08-06T02:09:00;7.30;;;5.70;;
60867;SDS011;46702;48.370;10.794;2022-08-06T02:11:28;8.93;;;5.53;;
60867;SDS011;46702;48.370;10.794;2022-08-06T02:13:54;6.75;;;5.15;;
60867;SDS011;46702;48.370;10.794;2022-08-06T02:18:48;7.55;;;5.28;;
60867;SDS011;46702;48.370;10.794;2022-08-06T02:21:16;7.32;;;4.35;;
60867;SDS011;46702;48.370;10.794;2022-08-06T02:23:46;5.95;;;4.10;;
60867;SDS011;46702;48.370;10.794;2022-08-06T02:26:13;6.63;;;4.35;;
60867;SDS011;46702;48.370;10.794;2022-08-06T02:28:41;6.47;;;4.40;;
60867;SDS011;46702;48.370;10.794;2022-08-06T02:31:08;5.03;;;3.70;;
60867;SDS011;46702;48.370;10.794;2022-08-06T02:33:34;7.32;;;4.00;;
60867;SDS011;46702;48.370;10.794;2022-08-06T02:36:10;4.70;;;3.58;;
60867;SDS011;46702;48.370;10.794;2022-08-06T02:38:46;6.95;;;3.78;;
60867;SDS011;46702;48.370;10.794;2022-08-06T02:41:18;6.47;;;3.78;;
60867;SDS011;46702;48.370;10.794;2022-08-06T02:44:09;6.20;;;3.33;;
60867;SDS011;46702;48.370;10.794;2022-08-06T02:46:52;4.20;;;3.15;;
60867;SDS011;46702;48.370;10.794;2022-08-06T02:49:25;6.38;;;3.65;;
60867;SDS011;46702;48.370;10.794;2022-08-06T02:52:15;3.38;;;2.90;;
60867;SDS011;46702;48.370;10.794;2022-08-06T02:54:43;3.22;;;2.80;;
60867;SDS011;46702;48.370;10.794;2022-08-06T02:57:20;4.97;;;3.00;;
60867;SDS011;46702;48.370;10.794;2022-08-06T02:59:57;6.03;;;3.03;;
60867;SDS011;46702;48.370;10.794;2022-08-06T03:02:26;4.20;;;2.97;;
60867;SDS011;46702;48.370;10.794;2022-08-06T03:04:56;5.15;;;3.40;;
60867;SDS011;46702;48.370;10.794;2022-08-06T03:07:25;4.72;;;3.13;;
60867;SDS011;46702;48.370;10.794;2022-08-06T03:09:53;3.55;;;2.97;;
60867;SDS011;46702;48.370;10.794;2022-08-06T03:12:21;3.72;;;2.88;;
60867;SDS011;46702;48.370;10.794;2022-08-06T03:14:47;4.30;;;3.22;;
60867;SDS011;46702;48.370;10.794;2022-08-06T03:17:13;5.63;;;3.45;;
60867;SDS011;46702;48.370;10.794;2022-08-06T03:19:41;5.43;;;3.70;;
60867;SDS011;46702;48.370;10.794;2022-08-06T03:22:09;5.35;;;2.95;;
60867;SDS011;46702;48.370;10.794;2022-08-06T03:24:37;6.10;;;3.55;;
60867;SDS011;46702;48.370;10.794;2022-08-06T03:27:03;4.63;;;3.20;;
60867;SDS011;46702;48.370;10.794;2022-08-06T03:29:30;3.55;;;3.20;;
60867;SDS011;46702;48.370;10.794;2022-08-06T03:31:57;4.18;;;3.20;;
60867;SDS011;46702;48.370;10.794;2022-08-06T03:34:23;4.53;;;3.25;;
60867;SDS011;46702;48.370;10.794;2022-08-06T03:36:50;4.75;;;3.35;;
60867;SDS011;46702;48.370;10.794;2022-08-06T03:39:17;5.75;;;3.17;;
60867;SDS011;46702;48.370;10.794;2022-08-06T03:41:44;5.45;;;3.00;;
60867;SDS011;46702;48.370;10.794;2022-08-06T03:44:10;5.20;;;3.35;;
60867;SDS011;46702;48.370;10.794;2022-08-06T03:46:43;6.88;;;3.45;;
60867;SDS011;46702;48.370;10.794;2022-08-06T03:49:23;7.13;;;3.35;;
60867;SDS011;46702;48.370;10.794;2022-08-06T03:52:15;4.45;;;3.17;;
60867;SDS011;46702;48.370;10.794;2022-08-06T03:54:46;4.05;;;3.40;;
60867;SDS011;46702;48.370;10.794;2022-08-06T03:57:16;6.25;;;3.95;;
60867;SDS011;46702;48.370;10.794;2022-08-06T03:59:44;4.22;;;3.78;;
60867;SDS011;46702;48.370;10.794;2022-08-06T04:02:12;5.75;;;4.22;;
60867;SDS011;46702;48.370;10.794;2022-08-06T04:04:39;4.55;;;3.90;;
60867;SDS011;46702;48.370;10.794;2022-08-06T04:07:07;6.78;;;4.18;;
60867;SDS011;46702;48.370;10.794;2022-08-06T04:09:33;5.28;;;4.03;;
60867;SDS011;46702;48.370;10.794;2022-08-06T04:12:00;5.53;;;4.03;;
60867;SDS011;46702;48.370;10.794;2022-08-06T04:14:27;5.63;;;3.80;;
60867;SDS011;46702;48.370;10.794;2022-08-06T04:16:53;5.82;;;4.20;;
60867;SDS011;46702;48.370;10.794;2022-08-06T04:19:19;4.95;;;4.13;;
60867;SDS011;46702;48.370;10.794;2022-08-06T04:21:47;7.93;;;4.60;;
60867;SDS011;46702;48.370;10.794;2022-08-06T04:24:13;6.63;;;4.25;;
60867;SDS011;46702;48.370;10.794;2022-08-06T04:26:40;6.20;;;4.20;;
60867;SDS011;46702;48.370;10.794;2022-08-06T04:29:09;6.20;;;4.00;;
60867;SDS011;46702;48.370;10.794;2022-08-06T04:31:37;7.32;;;4.22;;
60867;SDS011;46702;48.370;10.794;2022-08-06T04:34:04;5.47;;;4.00;;
60867;SDS011;46702;48.370;10.794;2022-08-06T04:36:31;5.65;;;4.55;;
60867;SDS011;46702;48.370;10.794;2022-08-06T04:38:58;6.22;;;4.35;;
60867;SDS011;46702;48.370;10.794;2022-08-06T04:41:23;5.80;;;3.95;;
60867;SDS011;46702;48.370;10.794;2022-08-06T04:43:52;6.90;;;4.57;;
60867;SDS011;46702;48.370;10.794;2022-08-06T04:46:19;6.97;;;4.68;;
60867;SDS011;46702;48.370;10.794;2022-08-06T04:48:46;6.22;;;4.13;;
60867;SDS011;46702;48.370;10.794;2022-08-06T04:51:13;7.80;;;4.63;;
60867;SDS011;46702;48.370;10.794;2022-08-06T04:53:39;5.47;;;4.40;;
60867;SDS011;46702;48.370;10.794;2022-08-06T04:56:06;5.70;;;4.78;;
60867;SDS011;46702;48.370;10.794;2022-08-06T04:58:33;6.15;;;4.57;;
60867;SDS011;46702;48.370;10.794;2022-08-06T05:00:59;6.97;;;4.72;;
60867;SDS011;46702;48.370;10.794;2022-08-06T05:03:25;7.32;;;4.78;;
60867;SDS011;46702;48.370;10.794;2022-08-06T05:05:55;6.88;;;4.47;;
60867;SDS011;46702;48.370;10.794;2022-08-06T05:08:28;6.15;;;5.13;;
60867;SDS011;46702;48.370;10.794;2022-08-06T05:11:02;6.25;;;4.30;;
60867;SDS011;46702;48.370;10.794;2022-08-06T05:13:37;6.80;;;4.57;;
60867;SDS011;46702;48.370;10.794;2022-08-06T05:16:06;6.82;;;5.05;;
60867;SDS011;46702;48.370;10.794;2022-08-06T05:18:34;7.28;;;4.57;;
60867;SDS011;46702;48.370;10.794;2022-08-06T05:21:16;7.43;;;4.72;;
60867;SDS011;46702;48.370;10.794;2022-08-06T05:23:45;6.30;;;4.57;;
60867;SDS011;46702;48.370;10.794;2022-08-06T05:26:13;6.50;;;4.47;;
60867;SDS011;46702;48.370;10.794;2022-08-06T05:28:39;6.60;;;4.40;;
60867;SDS011;46702;48.370;10.794;2022-08-06T05:31:06;4.93;;;4.15;;
60867;SDS011;46702;48.370;10.794;2022-08-06T05:33:33;5.53;;;3.80;;
60867;SDS011;46702;48.370;10.794;2022-08-06T05:36:07;5.75;;;3.85;;
60867;SDS011;46702;48.370;10.794;2022-08-06T05:38:37;5.93;;;4.55;;
60867;SDS011;46702;48.370;10.794;2022-08-06T05:41:09;5.38;;;3.70;;
60867;SDS011;46702;48.370;10.794;2022-08-06T05:43:39;5.53;;;4.00;;
60867;SDS011;46702;48.370;10.794;2022-08-06T05:46:09;4.13;;;3.60;;
60867;SDS011;46702;48.370;10.794;2022-08-06T05:48:40;3.63;;;3.30;;
60867;SDS011;46702;48.370;10.794;2022-08-06T05:51:10;4.05;;;3.60;;
60867;SDS011;46702;48.370;10.794;2022-08-06T05:54:13;6.10;;;3.75;;
60867;SDS011;46702;48.370;10.794;2022-08-06T05:56:45;7.93;;;4.22;;
60867;SDS011;46702;48.370;10.794;2022-08-06T05:59:17;6.15;;;4.25;;
60867;SDS011;46702;48.370;10.794;2022-08-06T06:01:48;5.85;;;4.10;;
60867;SDS011;46702;48.370;10.794;2022-08-06T06:04:14;5.55;;;3.67;;
60867;SDS011;46702;48.370;10.794;2022-08-06T06:06:42;5.18;;;3.72;;
60867;SDS011;46702;48.370;10.794;2022-08-06T06:09:09;6.97;;;4.10;;
60867;SDS011;46702;48.370;10.794;2022-08-06T06:11:35;5.47;;;3.60;;
60867;SDS011;46702;48.370;10.794;2022-08-06T06:14:02;4.95;;;3.45;;
60867;SDS011;46702;48.370;10.794;2022-08-06T06:17:03;3.70;;;3.40;;
60867;SDS011;46702;48.370;10.794;2022-08-06T06:19:31;4.45;;;3.47;;
60867;SDS011;46702;48.370;10.794;2022-08-06T06:22:19;3.80;;;3.40;;
60867;SDS011;46702;48.370;10.794;2022-08-06T06:27:57;3.35;;;3.05;;
60867;SDS011;46702;48.370;10.794;2022-08-06T06:30:42;5.80;;;3.42;;
60867;SDS011;46702;48.370;10.794;2022-08-06T06:33:21;3.88;;;3.55;;
60867;SDS011;46702;48.370;10.794;2022-08-06T06:36:05;4.03;;;3.42;;
60867;SDS011;46702;48.370;10.794;2022-08-06T06:41:33;3.58;;;3.22;;
60867;SDS011;46702;48.370;10.794;2022-08-06T06:44:37;5.35;;;4.03;;
60867;SDS011;46702;48.370;10.794;2022-08-06T06:47:31;5.35;;;3.55;;
60867;SDS011;46702;48.370;10.794;2022-08-06T06:50:23;5.25;;;4.18;;
60867;SDS011;46702;48.370;10.794;2022-08-06T06:52:57;6.18;;;4.40;;
60867;SDS011;46702;48.370;10.794;2022-08-06T06:55:35;6.28;;;4.53;;
60867;SDS011;46702;48.370;10.794;2022-08-06T07:00:40;6.85;;;4.63;;
60867;SDS011;46702;48.370;10.794;2022-08-06T07:03:07;6.07;;;4.90;;
60867;SDS011;46702;48.370;10.794;2022-08-06T07:05:34;5.23;;;4.60;;
60867;SDS011;46702;48.370;10.794;2022-08-06T07:08:02;6.47;;;4.80;;
60867;SDS011;46702;48.370;10.794;2022-08-06T07:10:29;7.03;;;4.90;;
60867;SDS011;46702;48.370;10.794;2022-08-06T07:12:56;8.00;;;5.45;;
60867;SDS011;46702;48.370;10.794;2022-08-06T07:15:23;5.72;;;4.60;;
60867;SDS011;46702;48.370;10.794;2022-08-06T07:17:49;7.10;;;4.80;;
60867;SDS011;46702;48.370;10.794;2022-08-06T07:20:18;7.85;;;5.03;;
60867;SDS011;46702;48.370;10.794;2022-08-06T07:22:47;8.90;;;5.47;;
60867;SDS011;46702;48.370;10.794;2022-08-06T07:25:13;9.27;;;5.63;;
60867;SDS011;46702;48.370;10.794;2022-08-06T07:27:42;7.57;;;5.55;;
60867;SDS011;46702;48.370;10.794;2022-08-06T07:30:14;10.90;;;5.15;;
60867;SDS011;46702;48.370;10.794;2022-08-06T07:32:42;8.40;;;5.90;;
60867;SDS011;46702;48.370;10.794;2022-08-06T07:35:09;8.60;;;5.60;;
60867;SDS011;46702;48.370;10.794;2022-08-06T07:37:37;8.15;;;5.93;;
60867;SDS011;46702;48.370;10.794;2022-08-06T07:40:06;7.45;;;5.68;;
60867;SDS011;46702;48.370;10.794;2022-08-06T07:42:36;8.45;;;5.57;;
60867;SDS011;46702;48.370;10.794;2022-08-06T07:47:35;9.02;;;6.15;;
60867;SDS011;46702;48.370;10.794;2022-08-06T07:50:04;8.00;;;5.85;;
60867;SDS011;46702;48.370;10.794;2022-08-06T07:52:34;8.10;;;5.53;;
60867;SDS011;46702;48.370;10.794;2022-08-06T07:55:03;8.00;;;5.53;;
60867;SDS011;46702;48.370;10.794;2022-08-06T07:57:30;8.25;;;5.88;;
60867;SDS011;46702;48.370;10.794;2022-08-06T07:59:56;6.97;;;5.38;;
60867;SDS011;46702;48.370;10.794;2022-08-06T08:02:23;7.00;;;6.13;;
60867;SDS011;46702;48.370;10.794;2022-08-06T08:04:49;9.55;;;6.47;;
60867;SDS011;46702;48.370;10.794;2022-08-06T08:07:34;6.55;;;5.72;;
60867;SDS011;46702;48.370;10.794;2022-08-06T08:10:00;9.20;;;6.53;;
60867;SDS011;46702;48.370;10.794;2022-08-06T08:12:26;8.23;;;6.28;;
60867;SDS011;46702;48.370;10.794;2022-08-06T08:14:52;9.32;;;7.18;;
60867;SDS011;46702;48.370;10.794;2022-08-06T08:17:18;9.50;;;6.32;;
60867;SDS011;46702;48.370;10.794;2022-08-06T08:19:44;9.55;;;6.97;;
60867;SDS011;46702;48.370;10.794;2022-08-06T08:22:11;10.80;;;7.28;;
60867;SDS011;46702;48.370;10.794;2022-08-06T08:24:42;9.50;;;7.32;;
60867;SDS011;46702;48.370;10.794;2022-08-06T08:27:09;11.85;;;7.88;;
60867;SDS011;46702;48.370;10.794;2022-08-06T08:29:39;11.90;;;7.75;;
60867;SDS011;46702;48.370;10.794;2022-08-06T08:32:06;10.98;;;7.28;;
60867;SDS011;46702;48.370;10.794;2022-08-06T08:34:33;13.07;;;7.40;;
60867;SDS011;46702;48.370;10.794;2022-08-06T08:37:00;10.55;;;7.45;;
60867;SDS011;46702;48.370;10.794;2022-08-06T08:39:26;9.45;;;8.00;;
60867;SDS011;46702;48.370;10.794;2022-08-06T08:41:58;12.45;;;8.70;;
60867;SDS011;46702;48.370;10.794;2022-08-06T08:44:35;11.25;;;8.02;;
60867;SDS011;46702;48.370;10.794;2022-08-06T08:47:02;13.73;;;8.40;;
60867;SDS011;46702;48.370;10.794;2022-08-06T08:49:32;9.30;;;7.65;;
60867;SDS011;46702;48.370;10.794;2022-08-06T08:52:04;11.80;;;8.27;;
60867;SDS011;46702;48.370;10.794;2022-08-06T08:54:34;12.75;;;9.23;;
60867;SDS011;46702;48.370;10.794;2022-08-06T08:57:01;13.30;;;8.38;;
60867;SDS011;46702;48.370;10.794;2022-08-06T08:59:28;12.02;;;8.48;;
60867;SDS011;46702;48.370;10.794;2022-08-06T09:01:55;10.43;;;8.07;;
60867;SDS011;46702;48.370;10.794;2022-08-06T09:04:21;11.82;;;8.75;;
60867;SDS011;46702;48.370;10.794;2022-08-06T09:06:47;9.90;;;8.05;;
60867;SDS011;46702;48.370;10.794;2022-08-06T09:09:13;13.48;;;9.18;;
60867;SDS011;46702;48.370;10.794;2022-08-06T09:11:39;11.55;;;8.15;;
60867;SDS011;46702;48.370;10.794;2022-08-06T09:14:06;13.40;;;9.07;;
60867;SDS011;46702;48.370;10.794;2022-08-06T09:16:34;11.57;;;8.93;;
60867;SDS011;46702;48.370;10.794;2022-08-06T09:19:01;13.32;;;8.52;;
60867;SDS011;46702;48.370;10.794;2022-08-06T09:21:28;13.07;;;9.03;;
60867;SDS011;46702;48.370;10.794;2022-08-06T09:23:54;12.07;;;9.00;;
60867;SDS011;46702;48.370;10.794;2022-08-06T09:26:21;9.82;;;8.02;;
60867;SDS011;46702;48.370;10.794;2022-08-06T09:28:46;12.65;;;8.90;;
60867;SDS011;46702;48.370;10.794;2022-08-06T09:31:14;13.18;;;8.80;;
60867;SDS011;46702;48.370;10.794;2022-08-06T09:33:55;11.52;;;8.77;;
60867;SDS011;46702;48.370;10.794;2022-08-06T09:36:21;12.30;;;8.68;;
60867;SDS011;46702;48.370;10.794;2022-08-06T09:38:48;13.20;;;8.63;;
60867;SDS011;46702;48.370;10.794;2022-08-06T09:41:16;12.48;;;8.88;;
60867;SDS011;46702;48.370;10.794;2022-08-06T09:43:44;12.15;;;8.48;;
60867;SDS011;46702;48.370;10.794;2022-08-06T09:46:11;12.65;;;10.07;;
60867;SDS011;46702;48.370;10.794;2022-08-06T09:48:39;13.35;;;10.15;;
60867;SDS011;46702;48.370;10.794;2022-08-06T09:51:24;15.27;;;9.68;;
60867;SDS011;46702;48.370;10.794;2022-08-06T09:53:54;13.20;;;9.52;;
60867;SDS011;46702;48.370;10.794;2022-08-06T09:56:21;13.50;;;8.75;;
60867;SDS011;46702;48.370;10.794;2022-08-06T09:58:47;10.65;;;8.60;;
60867;SDS011;46702;48.370;10.794;2022-08-06T10:01:17;10.93;;;8.25;;
60867;SDS011;46702;48.370;10.794;2022-08-06T10:03:45;10.93;;;8.57;;
60867;SDS011;46702;48.370;10.794;2022-08-06T10:06:13;12.77;;;8.38;;
60867;SDS011;46702;48.370;10.794;2022-08-06T10:08:40;12.77;;;8.50;;
60867;SDS011;46702;48.370;10.794;2022-08-06T10:11:07;11.70;;;8.43;;
60867;SDS011;46702;48.370;10.794;2022-08-06T10:13:33;13.40;;;9.38;;
60867;SDS011;46702;48.370;10.794;2022-08-06T10:16:00;12.82;;;9.43;;
60867;SDS011;46702;48.370;10.794;2022-08-06T10:21:09;12.93;;;9.35;;
60867;SDS011;46702;48.370;10.794;2022-08-06T10:23:38;13.52;;;9.57;;
60867;SDS011;46702;48.370;10.794;2022-08-06T10:26:08;12.05;;;8.68;;
60867;SDS011;46702;48.370;10.794;2022-08-06T10:28:39;13.15;;;9.02;;
60867;SDS011;46702;48.370;10.794;2022-08-06T10:31:09;10.18;;;8.10;;
60867;SDS011;46702;48.370;10.794;2022-08-06T10:33:51;12.52;;;8.98;;
60867;SDS011;46702;48.370;10.794;2022-08-06T10:36:24;12.40;;;7.95;;
60867;SDS011;46702;48.370;10.794;2022-08-06T10:38:53;13.85;;;8.10;;
60867;SDS011;46702;48.370;10.794;2022-08-06T10:41:20;11.57;;;7.88;;
60867;SDS011;46702;48.370;10.794;2022-08-06T10:43:47;10.68;;;8.07;;
60867;SDS011;46702;48.370;10.794;2022-08-06T10:46:14;9.43;;;7.93;;
60867;SDS011;46702;48.370;10.794;2022-08-06T10:48:45;10.25;;;7.90;;
60867;SDS011;46702;48.370;10.794;2022-08-06T10:51:12;13.13;;;8.75;;
60867;SDS011;46702;48.370;10.794;2022-08-06T10:53:39;11.40;;;8.90;;
60867;SDS011;46702;48.370;10.794;2022-08-06T10:56:10;11.55;;;8.90;;
60867;SDS011;46702;48.370;10.794;2022-08-06T10:58:41;10.55;;;8.30;;
60867;SDS011;46702;48.370;10.794;2022-08-06T11:01:15;11.00;;;8.13;;
60867;SDS011;46702;48.370;10.794;2022-08-06T11:07:23;11.32;;;8.52;;
60867;SDS011;46702;48.370;10.794;2022-08-06T11:15:45;13.80;;;8.38;;
60867;SDS011;46702;48.370;10.794;2022-08-06T11:18:12;9.57;;;8.32;;
60867;SDS011;46702;48.370;10.794;2022-08-06T11:20:41;9.30;;;7.55;;
60867;SDS011;46702;48.370;10.794;2022-08-06T11:25:41;11.30;;;8.23;;
60867;SDS011;46702;48.370;10.794;2022-08-06T11:28:09;11.45;;;8.82;;
60867;SDS011;46702;48.370;10.794;2022-08-06T11:33:02;11.88;;;8.60;;
60867;SDS011;46702;48.370;10.794;2022-08-06T11:38:07;10.05;;;8.27;;
60867;SDS011;46702;48.370;10.794;2022-08-06T11:46:30;12.23;;;8.93;;
60867;SDS011;46702;48.370;10.794;2022-08-06T11:59:26;10.52;;;8.07;;
60867;SDS011;46702;48.370;10.794;2022-08-06T12:01:56;9.15;;;8.15;;
60867;SDS011;46702;48.370;10.794;2022-08-06T12:04:38;10.68;;;7.60;;
60867;SDS011;46702;48.370;10.794;2022-08-06T12:17:42;8.18;;;6.93;;
60867;SDS011;46702;48.370;10.794;2022-08-06T12:20:30;8.52;;;7.32;;
60867;SDS011;46702;48.370;10.794;2022-08-06T12:23:03;10.02;;;7.35;;
60867;SDS011;46702;48.370;10.794;2022-08-06T12:27:57;7.90;;;7.00;;
60867;SDS011;46702;48.370;10.794;2022-08-06T12:30:23;12.18;;;7.55;;
60867;SDS011;46702;48.370;10.794;2022-08-06T12:32:58;8.85;;;6.90;;
60867;SDS011;46702;48.370;10.794;2022-08-06T12:35:25;8.85;;;7.07;;
60867;SDS011;46702;48.370;10.794;2022-08-06T12:37:51;7.05;;;6.35;;
60867;SDS011;46702;48.370;10.794;2022-08-06T12:40:18;7.80;;;6.53;;
60867;SDS011;46702;48.370;10.794;2022-08-06T12:45:26;8.32;;;6.70;;
60867;SDS011;46702;48.370;10.794;2022-08-06T12:48:06;10.00;;;6.78;;
60867;SDS011;46702;48.370;10.794;2022-08-06T12:50:37;8.23;;;6.70;;
60867;SDS011;46702;48.370;10.794;2022-08-06T12:53:08;6.88;;;6.13;;
60867;SDS011;46702;48.370;10.794;2022-08-06T12:55:45;7.05;;;6.20;;
60867;SDS011;46702;48.370;10.794;2022-08-06T12:58:18;6.90;;;6.20;;
60867;SDS011;46702;48.370;10.794;2022-08-06T13:00:49;7.97;;;6.35;;
60867;SDS011;46702;48.370;10.794;2022-08-06T13:03:19;8.77;;;6.15;;
60867;SDS011;46702;48.370;10.794;2022-08-06T13:05:47;7.10;;;6.20;;
60867;SDS011;46702;48.370;10.794;2022-08-06T13:08:14;6.88;;;6.28;;
60867;SDS011;46702;48.370;10.794;2022-08-06T13:10:46;7.22;;;6.28;;
60867;SDS011;46702;48.370;10.794;2022-08-06T13:13:17;6.63;;;5.97;;
60867;SDS011;46702;48.370;10.794;2022-08-06T13:16:05;5.72;;;5.15;;
60867;SDS011;46702;48.370;10.794;2022-08-06T13:18:37;7.45;;;6.65;;
60867;SDS011;46702;48.370;10.794;2022-08-06T13:21:04;7.73;;;5.93;;
60867;SDS011;46702;48.370;10.794;2022-08-06T13:23:44;6.47;;;5.80;;
60867;SDS011;46702;48.370;10.794;2022-08-06T13:26:19;8.15;;;6.00;;
60867;SDS011;46702;48.370;10.794;2022-08-06T13:31:34;5.97;;;5.43;;
60867;SDS011;46702;48.370;10.794;2022-08-06T13:34:05;6.65;;;5.35;;
60867;SDS011;46702;48.370;10.794;2022-08-06T13:36:39;7.53;;;5.63;;
60867;SDS011;46702;48.370;10.794;2022-08-06T13:39:18;5.18;;;4.40;;
60867;SDS011;46702;48.370;10.794;2022-08-06T13:41:44;5.00;;;4.30;;
60867;SDS011;46702;48.370;10.794;2022-08-06T13:47:00;4.80;;;4.40;;
60867;SDS011;46702;48.370;10.794;2022-08-06T13:49:27;4.97;;;4.45;;
60867;SDS011;46702;48.370;10.794;2022-08-06T13:51:52;5.03;;;4.60;;
60867;SDS011;46702;48.370;10.794;2022-08-06T13:54:18;6.20;;;5.18;;
60867;SDS011;46702;48.370;10.794;2022-08-06T13:56:45;7.25;;;5.97;;
60867;SDS011;46702;48.370;10.794;2022-08-06T13:59:12;5.85;;;5.00;;
60867;SDS011;46702;48.370;10.794;2022-08-06T14:01:38;5.38;;;4.88;;
60867;SDS011;46702;48.370;10.794;2022-08-06T14:04:06;5.18;;;4.50;;
60867;SDS011;46702;48.370;10.794;2022-08-06T14:06:32;4.95;;;4.55;;
60867;SDS011;46702;48.370;10.794;2022-08-06T14:08:58;6.90;;;4.82;;
60867;SDS011;46702;48.370;10.794;2022-08-06T14:11:25;4.82;;;4.40;;
60867;SDS011;46702;48.370;10.794;2022-08-06T14:13:51;5.00;;;4.60;;
60867;SDS011;46702;48.370;10.794;2022-08-06T14:16:17;5.00;;;4.32;;
60867;SDS011;46702;48.370;10.794;2022-08-06T14:18:42;5.25;;;4.38;;
60867;SDS011;46702;48.370;10.794;2022-08-06T14:21:08;4.65;;;4.22;;
60867;SDS011;46702;48.370;10.794;2022-08-06T14:23:34;4.90;;;4.40;;
60867;SDS011;46702;48.370;10.794;2022-08-06T14:25:59;4.28;;;3.88;;
60867;SDS011;46702;48.370;10.794;2022-08-06T14:28:26;4.50;;;4.10;;
60867;SDS011;46702;48.370;10.794;2022-08-06T14:30:52;5.18;;;4.63;;
60867;SDS011;46702;48.370;10.794;2022-08-06T14:33:18;4.45;;;4.05;;
60867;SDS011;46702;48.370;10.794;2022-08-06T14:35:44;4.35;;;3.95;;
60867;SDS011;46702;48.370;10.794;2022-08-06T14:38:09;4.75;;;3.90;;
60867;SDS011;46702;48.370;10.794;2022-08-06T14:43:22;5.47;;;3.88;;
60867;SDS011;46702;48.370;10.794;2022-08-06T14:46:06;4.03;;;3.63;;
60867;SDS011;46702;48.370;10.794;2022-08-06T14:48:31;8.48;;;3.97;;
60867;SDS011;46702;48.370;10.794;2022-08-06T14:50:57;4.25;;;3.80;;
60867;SDS011;46702;48.370;10.794;2022-08-06T14:53:23;4.00;;;3.50;;
60867;SDS011;46702;48.370;10.794;2022-08-06T14:55:49;4.60;;;4.20;;
60867;SDS011;46702;48.370;10.794;2022-08-06T14:58:14;5.80;;;3.90;;
60867;SDS011;46702;48.370;10.794;2022-08-06T15:00:40;3.60;;;3.30;;
60867;SDS011;46702;48.370;10.794;2022-08-06T15:03:06;4.55;;;3.47;;
60867;SDS011;46702;48.370;10.794;2022-08-06T15:05:32;6.28;;;3.92;;
60867;SDS011;46702;48.370;10.794;2022-08-06T15:07:59;4.60;;;3.95;;
60867;SDS011;46702;48.370;10.794;2022-08-06T15:10:26;3.83;;;3.53;;
60867;SDS011;46702;48.370;10.794;2022-08-06T15:12:51;4.18;;;3.70;;
60867;SDS011;46702;48.370;10.794;2022-08-06T15:15:17;4.75;;;3.72;;
60867;SDS011;46702;48.370;10.794;2022-08-06T15:17:43;4.18;;;3.78;;
60867;SDS011;46702;48.370;10.794;2022-08-06T15:20:09;4.72;;;4.00;;
60867;SDS011;46702;48.370;10.794;2022-08-06T15:22:34;3.78;;;3.47;;
60867;SDS011;46702;48.370;10.794;2022-08-06T15:25:00;4.43;;;3.38;;
60867;SDS011;46702;48.370;10.794;2022-08-06T15:27:26;3.90;;;3.50;;
60867;SDS011;46702;48.370;10.794;2022-08-06T15:29:51;3.90;;;3.50;;
60867;SDS011;46702;48.370;10.794;2022-08-06T15:32:17;3.58;;;3.28;;
60867;SDS011;46702;48.370;10.794;2022-08-06T15:34:42;4.22;;;3.85;;
60867;SDS011;46702;48.370;10.794;2022-08-06T15:37:08;3.78;;;3.47;;
60867;SDS011;46702;48.370;10.794;2022-08-06T15:39:34;3.45;;;3.15;;
60867;SDS011;46702;48.370;10.794;2022-08-06T15:42:00;4.72;;;3.58;;
60867;SDS011;46702;48.370;10.794;2022-08-06T15:44:26;4.38;;;3.97;;
60867;SDS011;46702;48.370;10.794;2022-08-06T15:46:52;3.83;;;3.53;;
60867;SDS011;46702;48.370;10.794;2022-08-06T15:49:18;4.20;;;3.53;;
60867;SDS011;46702;48.370;10.794;2022-08-06T15:51:43;3.90;;;3.50;;
60867;SDS011;46702;48.370;10.794;2022-08-06T15:54:09;4.93;;;3.65;;
60867;SDS011;46702;48.370;10.794;2022-08-06T15:56:35;4.57;;;3.70;;
60867;SDS011;46702;48.370;10.794;2022-08-06T15:59:02;5.03;;;3.78;;
60867;SDS011;46702;48.370;10.794;2022-08-06T16:01:28;3.90;;;3.60;;
60867;SDS011;46702;48.370;10.794;2022-08-06T16:03:54;4.75;;;3.90;;